PWSweather.com
Personal Weather Stations
Station Observations
IONTARIO88
Lincoln, ON L0R

Lincoln, ON L0R

Lat: 43.1763563, Lon: -79.4719525

Elevation: 297

Station Type: Davis Vantage Pro 2 Plus

http://www.beamsvillewx.ca

Latest ConditionsUpdated 6:30:05 PM EDT Wednesday, Apr 1, 2015
Currently Today's Max Today's Min Today's Average
Temperature 43.7°F6.5°C 44.4°F6.9°C 27.0°F-2.8°C 35.6°F2.0°C
Dew Point 20.9°F-6.2°C 27.2°F-2.7°C 16.6°F-8.6°C 22.2°F-5.4°C
Winds 1.8 mph NE2.9 kmh NE 6.6 mph NE10.6 kmh NE - 2.6 mph 4.2 kmh
Wind Gusts 4.0 mph6.4 kmh 9.0 mph14.5 kmh - -
Humidity 40% 79% 37% 59%
Pressure 30.14 in1020.7 mb 30.18 in1022.0 mb 29.98 in1015.2 mb -
Hour Temp Dew Point Humidity Winds Wind Gusts Pressure Precip Precip Rate Daily Precip Total
06:30 PM 43.7°F6.5°C 20.9°F-6.2°C 40% 1.8 mph NE2.9 kmh NE 4.0 mph6.4 kmh 30.14 in1020.7 mb - 0.00 in0.0 mm 0.00 in0.0 mm
06:20 PM 44.3°F6.8°C 20.8°F-6.2°C 39% 1.5 mph NE2.4 kmh NE 3.0 mph4.8 kmh 30.14 in1020.7 mb - 0.00 in0.0 mm 0.00 in0.0 mm
06:10 PM 43.6°F6.4°C 21.4°F-5.9°C 41% 0.7 mph NE1.1 kmh NE 3.0 mph4.8 kmh 30.14 in1020.7 mb - 0.00 in0.0 mm 0.00 in0.0 mm
06:00 PM 43.8°F6.6°C 20.4°F-6.4°C 39% 2.5 mph NE4.0 kmh NE 4.0 mph6.4 kmh 30.14 in1020.7 mb - 0.00 in0.0 mm 0.00 in0.0 mm
05:50 PM 43.8°F6.6°C 21.0°F-6.1°C 40% 1.8 mph NE2.9 kmh NE 3.0 mph4.8 kmh 30.15 in1021.0 mb - 0.00 in0.0 mm 0.00 in0.0 mm
05:40 PM 44.1°F6.7°C 20.7°F-6.3°C 39% 4.3 mph NE6.9 kmh NE 7.0 mph11.3 kmh 30.15 in1021.0 mb - 0.00 in0.0 mm 0.00 in0.0 mm
05:30 PM 44.4°F6.9°C 20.3°F-6.5°C 38% 3.3 mph NE5.3 kmh NE 4.0 mph6.4 kmh 30.15 in1021.0 mb - 0.00 in0.0 mm 0.00 in0.0 mm
05:20 PM 44.4°F6.9°C 21.0°F-6.1°C 39% 2.6 mph NE4.2 kmh NE 3.0 mph4.8 kmh 30.15 in1021.0 mb - 0.00 in0.0 mm 0.00 in0.0 mm
05:10 PM 43.9°F6.6°C 21.1°F-6.1°C 40% 1.8 mph NE2.9 kmh NE 5.0 mph8.0 kmh 30.15 in1021.0 mb - 0.00 in0.0 mm 0.00 in0.0 mm
05:00 PM 43.5°F6.4°C 19.6°F-6.9°C 38% 4.5 mph NE7.2 kmh NE 9.0 mph14.5 kmh 30.15 in1021.0 mb - 0.00 in0.0 mm 0.00 in0.0 mm
04:50 PM 43.1°F6.2°C 18.5°F-7.5°C 37% 4.6 mph NE7.4 kmh NE 6.0 mph9.7 kmh 30.16 in1021.3 mb - 0.00 in0.0 mm 0.00 in0.0 mm
04:40 PM 43.0°F6.1°C 19.1°F-7.2°C 38% 3.2 mph NE5.1 kmh NE 6.0 mph9.7 kmh 30.17 in1021.7 mb - 0.00 in0.0 mm 0.00 in0.0 mm
04:30 PM 43.0°F6.1°C 20.3°F-6.5°C 40% 4.8 mph NE7.7 kmh NE 8.0 mph12.9 kmh 30.16 in1021.3 mb - 0.00 in0.0 mm 0.00 in0.0 mm
04:20 PM 42.8°F6.0°C 20.1°F-6.6°C 40% 1.6 mph NE2.6 kmh NE 3.0 mph4.8 kmh 30.16 in1021.3 mb - 0.00 in0.0 mm 0.00 in0.0 mm
04:10 PM 42.7°F5.9°C 20.6°F-6.3°C 41% 3.8 mph NE6.1 kmh NE 5.0 mph8.0 kmh 30.17 in1021.7 mb - 0.00 in0.0 mm 0.00 in0.0 mm
04:00 PM 41.9°F5.5°C 21.0°F-6.1°C 43% 4.9 mph NE7.9 kmh NE 7.0 mph11.3 kmh 30.17 in1021.7 mb - 0.00 in0.0 mm 0.00 in0.0 mm
03:50 PM 42.0°F5.6°C 20.5°F-6.4°C 42% 6.6 mph NE10.6 kmh NE 9.0 mph14.5 kmh 30.17 in1021.7 mb - 0.00 in0.0 mm 0.00 in0.0 mm
03:40 PM 42.2°F5.7°C 18.9°F-7.3°C 39% 5.4 mph NE8.7 kmh NE 8.0 mph12.9 kmh 30.18 in1022.0 mb - 0.00 in0.0 mm 0.00 in0.0 mm
03:30 PM 41.8°F5.4°C 20.9°F-6.2°C 43% 4.6 mph NE7.4 kmh NE 8.0 mph12.9 kmh 30.18 in1022.0 mb - 0.00 in0.0 mm 0.00 in0.0 mm
03:20 PM 41.6°F5.3°C 21.3°F-5.9°C 44% 3.1 mph NE5.0 kmh NE 4.0 mph6.4 kmh 30.18 in1022.0 mb - 0.00 in0.0 mm 0.00 in0.0 mm
03:10 PM 41.4°F5.2°C 20.6°F-6.3°C 43% 4.0 mph NE6.4 kmh NE 6.0 mph9.7 kmh 30.18 in1022.0 mb - 0.00 in0.0 mm 0.00 in0.0 mm
03:00 PM 41.4°F5.2°C 21.6°F-5.8°C 45% 3.1 mph NE5.0 kmh NE 4.0 mph6.4 kmh 30.18 in1022.0 mb - 0.00 in0.0 mm 0.00 in0.0 mm
02:50 PM 41.5°F5.3°C 22.8°F-5.1°C 47% 5.6 mph NE9.0 kmh NE 6.0 mph9.7 kmh 30.18 in1022.0 mb - 0.00 in0.0 mm 0.00 in0.0 mm
02:40 PM 41.3°F5.2°C 23.6°F-4.7°C 49% 4.0 mph NE6.4 kmh NE 5.0 mph8.0 kmh 30.18 in1022.0 mb - 0.00 in0.0 mm 0.00 in0.0 mm
02:30 PM 41.0°F5.0°C 24.3°F-4.3°C 51% 3.5 mph NE5.6 kmh NE 5.0 mph8.0 kmh 30.18 in1022.0 mb - 0.00 in0.0 mm 0.00 in0.0 mm
02:20 PM 40.7°F4.8°C 24.0°F-4.4°C 51% 5.9 mph NE9.5 kmh NE 9.0 mph14.5 kmh 30.18 in1022.0 mb - 0.00 in0.0 mm 0.00 in0.0 mm
02:10 PM 40.8°F4.9°C 25.0°F-3.9°C 53% 5.0 mph N8.0 kmh N 8.0 mph12.9 kmh 30.18 in1022.0 mb - 0.00 in0.0 mm 0.00 in0.0 mm
02:00 PM 41.1°F5.1°C 26.2°F-3.2°C 55% 3.5 mph NNE5.6 kmh NNE 6.0 mph9.7 kmh 30.18 in1022.0 mb - 0.00 in0.0 mm 0.00 in0.0 mm
01:50 PM 40.4°F4.7°C 25.5°F-3.6°C 55% 4.6 mph NE7.4 kmh NE 5.0 mph8.0 kmh 30.18 in1022.0 mb - 0.00 in0.0 mm 0.00 in0.0 mm
01:40 PM 40.1°F4.5°C 26.1°F-3.3°C 57% 4.1 mph NE6.6 kmh NE 6.0 mph9.7 kmh 30.18 in1022.0 mb - 0.00 in0.0 mm 0.00 in0.0 mm
01:30 PM 40.5°F4.7°C 26.9°F-2.8°C 58% 4.3 mph N6.9 kmh N 5.0 mph8.0 kmh 30.18 in1022.0 mb - 0.00 in0.0 mm 0.00 in0.0 mm
01:20 PM 39.9°F4.4°C 26.3°F-3.2°C 58% 4.5 mph NE7.2 kmh NE 7.0 mph11.3 kmh 30.18 in1022.0 mb - 0.00 in0.0 mm 0.00 in0.0 mm
01:10 PM 40.0°F4.4°C 26.4°F-3.1°C 58% 6.3 mph NNE10.1 kmh NNE 8.0 mph12.9 kmh 30.18 in1022.0 mb - 0.00 in0.0 mm 0.00 in0.0 mm
01:00 PM 40.0°F4.4°C 27.2°F-2.7°C 60% 4.0 mph NE6.4 kmh NE 7.0 mph11.3 kmh 30.18 in1022.0 mb - 0.00 in0.0 mm 0.00 in0.0 mm
12:50 PM 39.7°F4.3°C 27.0°F-2.8°C 60% 6.4 mph NNE10.3 kmh NNE 9.0 mph14.5 kmh 30.18 in1022.0 mb - 0.00 in0.0 mm 0.00 in0.0 mm
12:40 PM 39.4°F4.1°C 27.1°F-2.7°C 61% 2.5 mph NE4.0 kmh NE 4.0 mph6.4 kmh 30.18 in1022.0 mb - 0.00 in0.0 mm 0.00 in0.0 mm
12:30 PM 39.2°F4.0°C 26.9°F-2.8°C 61% 2.9 mph NE4.7 kmh NE 5.0 mph8.0 kmh 30.18 in1022.0 mb - 0.00 in0.0 mm 0.00 in0.0 mm
12:20 PM 39.2°F4.0°C 26.1°F-3.3°C 59% 4.6 mph NE7.4 kmh NE 7.0 mph11.3 kmh 30.18 in1022.0 mb - 0.00 in0.0 mm 0.00 in0.0 mm
12:10 PM 38.5°F3.6°C 25.9°F-3.4°C 60% 4.7 mph NE7.6 kmh NE 7.0 mph11.3 kmh 30.18 in1022.0 mb - 0.00 in0.0 mm 0.00 in0.0 mm
12:00 PM 38.3°F3.5°C 24.8°F-4.0°C 58% 3.6 mph NE5.8 kmh NE 5.0 mph8.0 kmh 30.18 in1022.0 mb - 0.00 in0.0 mm 0.00 in0.0 mm
11:50 AM 38.5°F3.6°C 25.0°F-3.9°C 58% 6.2 mph NNE10.0 kmh NNE 9.0 mph14.5 kmh 30.18 in1022.0 mb - 0.00 in0.0 mm 0.00 in0.0 mm
11:40 AM 38.5°F3.6°C 25.0°F-3.9°C 58% 4.0 mph NE6.4 kmh NE 6.0 mph9.7 kmh 30.18 in1022.0 mb - 0.00 in0.0 mm 0.00 in0.0 mm
11:30 AM 38.2°F3.4°C 24.3°F-4.3°C 57% 4.1 mph NNE6.6 kmh NNE 6.0 mph9.7 kmh 30.18 in1022.0 mb - 0.00 in0.0 mm 0.00 in0.0 mm
11:20 AM 38.0°F3.3°C 25.0°F-3.9°C 59% 2.9 mph NE4.7 kmh NE 7.0 mph11.3 kmh 30.18 in1022.0 mb - 0.00 in0.0 mm 0.00 in0.0 mm
11:10 AM 37.7°F3.2°C 25.5°F-3.6°C 61% 1.6 mph NE2.6 kmh NE 4.0 mph6.4 kmh 30.18 in1022.0 mb - 0.00 in0.0 mm 0.00 in0.0 mm
11:00 AM 37.8°F3.2°C 24.7°F-4.1°C 59% 5.0 mph NE8.0 kmh NE 8.0 mph12.9 kmh 30.18 in1022.0 mb - 0.00 in0.0 mm 0.00 in0.0 mm
10:50 AM 37.5°F3.1°C 25.3°F-3.7°C 61% 4.2 mph NE6.8 kmh NE 6.0 mph9.7 kmh 30.18 in1022.0 mb - 0.00 in0.0 mm 0.00 in0.0 mm
10:40 AM 37.3°F2.9°C 24.7°F-4.1°C 60% 3.1 mph NE5.0 kmh NE 5.0 mph8.0 kmh 30.17 in1021.7 mb - 0.00 in0.0 mm 0.00 in0.0 mm
10:30 AM 37.0°F2.8°C 24.4°F-4.2°C 60% 3.6 mph NE5.8 kmh NE 7.0 mph11.3 kmh 30.17 in1021.7 mb - 0.00 in0.0 mm 0.00 in0.0 mm
10:20 AM 37.0°F2.8°C 24.8°F-4.0°C 61% 2.0 mph NE3.2 kmh NE 5.0 mph8.0 kmh 30.17 in1021.7 mb - 0.00 in0.0 mm 0.00 in0.0 mm
10:10 AM 36.3°F2.4°C 23.7°F-4.6°C 60% 1.4 mph NE2.3 kmh NE 3.0 mph4.8 kmh 30.16 in1021.3 mb - 0.00 in0.0 mm 0.00 in0.0 mm
10:00 AM 35.9°F2.2°C 23.4°F-4.8°C 60% 2.1 mph NE3.4 kmh NE 3.0 mph4.8 kmh 30.16 in1021.3 mb - 0.00 in0.0 mm 0.00 in0.0 mm
09:50 AM 35.6°F2.0°C 23.1°F-4.9°C 60% 3.3 mph NE5.3 kmh NE 4.0 mph6.4 kmh 30.16 in1021.3 mb - 0.00 in0.0 mm 0.00 in0.0 mm
09:40 AM 35.2°F1.8°C 23.1°F-4.9°C 61% 3.8 mph NE6.1 kmh NE 5.0 mph8.0 kmh 30.16 in1021.3 mb - 0.00 in0.0 mm 0.00 in0.0 mm
09:30 AM 35.1°F1.7°C 23.0°F-5.0°C 61% 2.4 mph NE3.9 kmh NE 6.0 mph9.7 kmh 30.16 in1021.3 mb - 0.00 in0.0 mm 0.00 in0.0 mm
09:20 AM 34.9°F1.6°C 22.8°F-5.1°C 61% 2.8 mph NE4.5 kmh NE 4.0 mph6.4 kmh 30.15 in1021.0 mb - 0.00 in0.0 mm 0.00 in0.0 mm
09:10 AM 34.7°F1.5°C 22.6°F-5.2°C 61% 4.1 mph NE6.6 kmh NE 6.0 mph9.7 kmh 30.15 in1021.0 mb - 0.00 in0.0 mm 0.00 in0.0 mm
09:00 AM 34.3°F1.3°C 22.2°F-5.4°C 61% 5.7 mph NE9.2 kmh NE 8.0 mph12.9 kmh 30.15 in1021.0 mb - 0.00 in0.0 mm 0.00 in0.0 mm
08:50 AM 33.6°F0.9°C 23.5°F-4.7°C 66% 3.4 mph N5.5 kmh N 4.0 mph6.4 kmh 30.14 in1020.7 mb - 0.00 in0.0 mm 0.00 in0.0 mm
08:40 AM 33.1°F0.6°C 23.7°F-4.6°C 68% 3.5 mph N5.6 kmh N 6.0 mph9.7 kmh 30.14 in1020.7 mb - 0.00 in0.0 mm 0.00 in0.0 mm
08:30 AM 32.8°F0.4°C 23.7°F-4.6°C 69% 3.3 mph N5.3 kmh N 4.0 mph6.4 kmh 30.14 in1020.7 mb - 0.00 in0.0 mm 0.00 in0.0 mm
08:20 AM 32.2°F0.1°C 23.2°F-4.9°C 69% 2.5 mph N4.0 kmh N 5.0 mph8.0 kmh 30.14 in1020.7 mb - 0.00 in0.0 mm 0.00 in0.0 mm
08:10 AM 30.9°F-0.6°C 22.6°F-5.2°C 71% 3.9 mph N6.3 kmh N 5.0 mph8.0 kmh 30.13 in1020.3 mb - 0.00 in0.0 mm 0.00 in0.0 mm
08:00 AM 29.4°F-1.4°C 22.1°F-5.5°C 74% 3.3 mph N5.3 kmh N 5.0 mph8.0 kmh 30.13 in1020.3 mb - 0.00 in0.0 mm 0.00 in0.0 mm
07:50 AM 28.1°F-2.2°C 21.2°F-6.0°C 75% Calm Calm -- 30.12 in1020.0 mb - 0.00 in0.0 mm 0.00 in0.0 mm
07:40 AM 27.4°F-2.6°C 20.2°F-6.6°C 74% Calm Calm -- 30.12 in1020.0 mb - 0.00 in0.0 mm 0.00 in0.0 mm
07:30 AM 27.2°F-2.7°C 20.0°F-6.7°C 74% 0.7 mph N1.1 kmh N 1.0 mph1.6 kmh 30.12 in1020.0 mb - 0.00 in0.0 mm 0.00 in0.0 mm
07:20 AM 27.2°F-2.7°C 19.7°F-6.8°C 73% Calm Calm -- 30.11 in1019.6 mb - 0.00 in0.0 mm 0.00 in0.0 mm
07:10 AM 27.1°F-2.7°C 19.0°F-7.2°C 71% 0.7 mph N1.1 kmh N 3.0 mph4.8 kmh 30.10 in1019.3 mb - 0.00 in0.0 mm 0.00 in0.0 mm
07:00 AM 27.0°F-2.8°C 18.8°F-7.3°C 71% Calm Calm -- 30.10 in1019.3 mb - 0.00 in0.0 mm 0.00 in0.0 mm
06:50 AM 27.3°F-2.6°C 18.1°F-7.7°C 68% 0.4 mph N0.6 kmh N 2.0 mph3.2 kmh 30.09 in1019.0 mb - 0.00 in0.0 mm 0.00 in0.0 mm
06:40 AM 28.5°F-1.9°C 18.2°F-7.7°C 65% 0.3 mph N0.5 kmh N 1.0 mph1.6 kmh 30.07 in1018.3 mb - 0.00 in0.0 mm 0.00 in0.0 mm
06:30 AM 30.0°F-1.1°C 18.5°F-7.5°C 62% Calm Calm -- 30.07 in1018.3 mb - 0.00 in0.0 mm 0.00 in0.0 mm
06:20 AM 30.2°F-1.0°C 18.3°F-7.6°C 61% 0.7 mph N1.1 kmh N 2.0 mph3.2 kmh 30.07 in1018.3 mb - 0.00 in0.0 mm 0.00 in0.0 mm
06:10 AM 30.3°F-0.9°C 18.1°F-7.7°C 60% 2.3 mph N3.7 kmh N 4.0 mph6.4 kmh 30.06 in1017.9 mb - 0.00 in0.0 mm 0.00 in0.0 mm
06:00 AM 30.4°F-0.9°C 17.8°F-7.9°C 59% 1.3 mph N2.1 kmh N 2.0 mph3.2 kmh 30.06 in1017.9 mb - 0.00 in0.0 mm 0.00 in0.0 mm
05:50 AM 30.1°F-1.1°C 17.8°F-7.9°C 60% 2.1 mph N3.4 kmh N 4.0 mph6.4 kmh 30.06 in1017.9 mb - 0.00 in0.0 mm 0.00 in0.0 mm
05:40 AM 29.2°F-1.6°C 17.8°F-7.9°C 62% 1.7 mph N2.7 kmh N 4.0 mph6.4 kmh 30.05 in1017.6 mb - 0.00 in0.0 mm 0.00 in0.0 mm
05:30 AM 28.8°F-1.8°C 18.1°F-7.7°C 64% 1.1 mph N1.8 kmh N 2.0 mph3.2 kmh 30.05 in1017.6 mb - 0.00 in0.0 mm 0.00 in0.0 mm
05:20 AM 29.1°F-1.6°C 17.7°F-7.9°C 62% 0.1 mph N0.2 kmh N -- 30.04 in1017.3 mb - 0.00 in0.0 mm 0.00 in0.0 mm
05:10 AM 29.8°F-1.2°C 17.6°F-8.0°C 60% 0.3 mph N0.5 kmh N 2.0 mph3.2 kmh 30.04 in1017.3 mb - 0.00 in0.0 mm 0.00 in0.0 mm
05:00 AM 30.3°F-0.9°C 17.3°F-8.2°C 58% 1.9 mph N3.1 kmh N 3.0 mph4.8 kmh 30.04 in1017.3 mb - 0.00 in0.0 mm 0.00 in0.0 mm
04:50 AM 30.5°F-0.8°C 17.1°F-8.3°C 57% 0.6 mph N1.0 kmh N 2.0 mph3.2 kmh 30.03 in1016.9 mb - 0.00 in0.0 mm 0.00 in0.0 mm
04:40 AM 30.7°F-0.7°C 17.3°F-8.2°C 57% 1.4 mph N2.3 kmh N 2.0 mph3.2 kmh 30.02 in1016.6 mb - 0.00 in0.0 mm 0.00 in0.0 mm
04:30 AM 30.7°F-0.7°C 17.3°F-8.2°C 57% 3.9 mph N6.3 kmh N 5.0 mph8.0 kmh 30.02 in1016.6 mb - 0.00 in0.0 mm 0.00 in0.0 mm
04:20 AM 30.7°F-0.7°C 18.8°F-7.3°C 61% 2.9 mph N4.7 kmh N 6.0 mph9.7 kmh 30.02 in1016.6 mb - 0.00 in0.0 mm 0.00 in0.0 mm
04:10 AM 30.7°F-0.7°C 18.4°F-7.6°C 60% 0.4 mph N0.6 kmh N 2.0 mph3.2 kmh 30.02 in1016.6 mb - 0.00 in0.0 mm 0.00 in0.0 mm
04:00 AM 31.1°F-0.5°C 18.0°F-7.8°C 58% 2.0 mph N3.2 kmh N 3.0 mph4.8 kmh 30.02 in1016.6 mb - 0.00 in0.0 mm 0.00 in0.0 mm
03:50 AM 31.6°F-0.2°C 17.3°F-8.2°C 55% 3.3 mph N5.3 kmh N 5.0 mph8.0 kmh 30.01 in1016.3 mb - 0.00 in0.0 mm 0.00 in0.0 mm
03:40 AM 31.7°F-0.2°C 17.4°F-8.1°C 55% 1.2 mph N1.9 kmh N 3.0 mph4.8 kmh 30.01 in1016.3 mb - 0.00 in0.0 mm 0.00 in0.0 mm
03:30 AM 31.8°F-0.1°C 16.6°F-8.6°C 53% 3.9 mph N6.3 kmh N 5.0 mph8.0 kmh 30.01 in1016.3 mb - 0.00 in0.0 mm 0.00 in0.0 mm
03:20 AM 31.9°F-0.1°C 18.8°F-7.3°C 58% 2.5 mph NNW4.0 kmh NNW 4.0 mph6.4 kmh 30.01 in1016.3 mb - 0.00 in0.0 mm 0.00 in0.0 mm
03:10 AM 31.8°F-0.1°C 19.5°F-6.9°C 60% 0.8 mph NNW1.3 kmh NNW 5.0 mph8.0 kmh 30.00 in1015.9 mb - 0.00 in0.0 mm 0.00 in0.0 mm
03:00 AM 31.5°F-0.3°C 19.6°F-6.9°C 61% 3.3 mph NNW5.3 kmh NNW 5.0 mph8.0 kmh 30.00 in1015.9 mb - 0.00 in0.0 mm 0.00 in0.0 mm
02:50 AM 31.1°F-0.5°C 22.1°F-5.5°C 69% 3.7 mph NNW6.0 kmh NNW 7.0 mph11.3 kmh 30.00 in1015.9 mb - 0.00 in0.0 mm 0.00 in0.0 mm
02:40 AM 30.6°F-0.8°C 24.9°F-3.9°C 79% 3.0 mph NW4.8 kmh NW 6.0 mph9.7 kmh 30.00 in1015.9 mb - 0.00 in0.0 mm 0.00 in0.0 mm
02:30 AM 30.6°F-0.8°C 24.6°F-4.1°C 78% 0.3 mph NNW0.5 kmh NNW 2.0 mph3.2 kmh 30.00 in1015.9 mb - 0.00 in0.0 mm 0.00 in0.0 mm
02:20 AM 31.6°F-0.2°C 24.9°F-3.9°C 76% 0.1 mph NNW0.2 kmh NNW 1.0 mph1.6 kmh 30.00 in1015.9 mb - 0.00 in0.0 mm 0.00 in0.0 mm
02:10 AM 32.6°F0.3°C 25.6°F-3.6°C 75% Calm Calm -- 30.00 in1015.9 mb - 0.00 in0.0 mm 0.00 in0.0 mm
02:00 AM 33.1°F0.6°C 25.4°F-3.7°C 73% Calm Calm -- 30.00 in1015.9 mb - 0.00 in0.0 mm 0.00 in0.0 mm
01:50 AM 33.0°F0.6°C 25.3°F-3.7°C 73% Calm Calm -- 29.99 in1015.6 mb - 0.00 in0.0 mm 0.00 in0.0 mm
01:40 AM 32.8°F0.4°C 25.1°F-3.8°C 73% 1.0 mph NNW1.6 kmh NNW 3.0 mph4.8 kmh 29.98 in1015.2 mb - 0.00 in0.0 mm 0.00 in0.0 mm
01:30 AM 32.4°F0.2°C 24.7°F-4.1°C 73% 0.9 mph NNW1.4 kmh NNW 2.0 mph3.2 kmh 29.98 in1015.2 mb - 0.00 in0.0 mm 0.00 in0.0 mm
01:20 AM 32.0°F0.0°C 25.0°F-3.9°C 75% 1.8 mph NNW2.9 kmh NNW 5.0 mph8.0 kmh 29.99 in1015.6 mb - 0.00 in0.0 mm 0.00 in0.0 mm
01:10 AM 31.9°F-0.1°C 25.5°F-3.6°C 77% 0.1 mph NNW0.2 kmh NNW -- 29.99 in1015.6 mb - 0.00 in0.0 mm 0.00 in0.0 mm
01:00 AM 31.9°F-0.1°C 25.5°F-3.6°C 77% Calm Calm -- 29.99 in1015.6 mb - 0.00 in0.0 mm 0.00 in0.0 mm
12:50 AM 32.3°F0.2°C 25.9°F-3.4°C 77% Calm Calm -- 29.98 in1015.2 mb - 0.00 in0.0 mm 0.00 in0.0 mm
12:40 AM 32.6°F0.3°C 26.2°F-3.2°C 77% Calm Calm -- 29.98 in1015.2 mb - 0.00 in0.0 mm 0.00 in0.0 mm
12:30 AM 32.4°F0.2°C 26.0°F-3.3°C 77% Calm Calm -- 29.98 in1015.2 mb - 0.00 in0.0 mm 0.00 in0.0 mm
12:20 AM 32.3°F0.2°C 26.2°F-3.2°C 78% Calm Calm -- 29.98 in1015.2 mb - 0.00 in0.0 mm 0.00 in0.0 mm
12:10 AM 32.3°F0.2°C 26.2°F-3.2°C 78% 1.0 mph NNW1.6 kmh NNW 2.0 mph3.2 kmh 29.98 in1015.2 mb - 0.00 in0.0 mm 0.00 in0.0 mm
12:00 AM 32.3°F0.2°C 26.2°F-3.2°C 78% Calm Calm -- 29.98 in1015.2 mb - 0.00 in0.0 mm 0.00 in0.0 mm